Maryland METAR Reports


Distance/Direction noted is from Ellicott City, MD as the crow flies

KCBE - Cumberland - 118 miles WNW
Updated: Thu, 08/28/2014 8:57 PM
Clear
Clear
 Wind from calm
Wind: Calm
Temperature: 70°F
Dew Point: 50°F
Humidity: 50%
Barometer: 30.13 inHg
Clouds: Clear
Visibility: 10 miles
2014/08/29 00:57 KCBE 290057Z AUTO 00000KT 10SM CLR 21/10 A3013 RMK AO1
KHGR - Hagerstown - 57 miles NW
Updated: Thu, 08/28/2014 8:53 PM
Clear
Clear
 Wind from N
Wind: N 8 mph
Temperature: 70°F
Dew Point: 52°F
Humidity: 53%
Barometer: 30.07 inHg
Clouds: Clear
Visibility: 10 miles
2014/08/29 00:53 KHGR 290053Z 36007KT 10SM CLR 21/11 A3007 RMK AO2 SLP188 T02060106
 
KFDK - Frederick - 34 miles NW
Updated: Thu, 08/28/2014 8:55 PM
Clear
Clear
 Wind from calm
Wind: Calm
Temperature: 66°F
Dew Point: 59°F
Humidity: 78%
Barometer: 30.08 inHg
Clouds: Clear
Visibility: 10 miles
2014/08/29 00:55 KFDK 290055Z AUTO 00000KT 10SM CLR 19/15 A3008 RMK AO2
KGAI - Gaithersburg - 26 miles SW
Updated: Thu, 08/28/2014 8:55 PM
Clear
Clear
 Wind from calm
Wind: Calm
Temperature: 66°F
Dew Point: 52°F
Humidity: 60%
Barometer: 30.09 inHg
Clouds: Clear
Visibility: 10 miles
2014/08/29 00:55 KGAI 290055Z AUTO 00000KT 10SM CLR 19/11 A3009 RMK AO1
 
KBWI - BWI Airport - 15 miles SE
Updated: Thu, 08/28/2014 8:54 PM
Clear
Clear
 Wind from calm
Wind: Calm
Temperature: 72°F
Dew Point: 55°F
Humidity: 57%
Barometer: 30.04 inHg
Clouds: Clear
Visibility: 10 miles
2014/08/29 00:54 KBWI 290054Z 00000KT 10SM CLR 22/13 A3004 RMK AO2 SLP169 T02220128
KNAK - Annapolis - 32 miles SSE
Updated: Thu, 08/28/2014 8:54 PM
Clear
Clear
 Wind from NNE
Wind: NNE 8 mph
Temperature: 75°F
Dew Point: 57°F
Humidity: 54%
Barometer: 30.03 inHg
Clouds: Clear
Visibility: 10 miles
2014/08/29 00:54 KNAK 290054Z AUTO 02007KT 10SM CLR 24/14 A3003 RMK AO2 SLP170 T02390139
 
KESN - Easton - 63 miles SE
Updated: Thu, 08/28/2014 8:55 PM
Clear
Clear
 Wind from calm
Wind: Calm
Temperature: 73°F
Dew Point: 59°F
Humidity: 61%
Barometer: 30.06 inHg
Clouds: Clear
Visibility: 10 miles
2014/08/29 00:55 KESN 290055Z 00000KT 10SM SKC 23/15 A3006
KSBY - Salisbury - 112 miles SE
Updated: Thu, 08/28/2014 8:54 PM
Clear
Clear
 Wind from calm
Wind: Calm
Temperature: 73°F
Dew Point: 61°F
Humidity: 65%
Barometer: 30.02 inHg
Clouds: Clear
Visibility: 10 miles
2014/08/29 00:54 KSBY 290054Z 00000KT 10SM CLR 23/16 A3002 RMK AO2 SLP166 T02280161